sensor_id;sensor_type;location;lat;lon;timestamp;P1;durP1;ratioP1;P2;durP2;ratioP2
21979;SDS011;11154;48.558;9.234;2023-12-29T00:01:14;1.00;;;0.90;;
21979;SDS011;11154;48.558;9.234;2023-12-29T00:03:16;1.40;;;1.10;;
21979;SDS011;11154;48.558;9.234;2023-12-29T00:05:16;1.48;;;1.10;;
21979;SDS011;11154;48.558;9.234;2023-12-29T00:07:19;1.92;;;1.20;;
21979;SDS011;11154;48.558;9.234;2023-12-29T00:09:20;2.65;;;1.70;;
21979;SDS011;11154;48.558;9.234;2023-12-29T00:11:22;2.53;;;1.95;;
21979;SDS011;11154;48.558;9.234;2023-12-29T00:13:23;1.95;;;1.10;;
21979;SDS011;11154;48.558;9.234;2023-12-29T00:15:25;1.45;;;0.85;;
21979;SDS011;11154;48.558;9.234;2023-12-29T00:17:27;1.20;;;0.93;;
21979;SDS011;11154;48.558;9.234;2023-12-29T00:19:28;1.67;;;1.10;;
21979;SDS011;11154;48.558;9.234;2023-12-29T00:21:29;1.35;;;1.20;;
21979;SDS011;11154;48.558;9.234;2023-12-29T00:23:32;5.60;;;1.33;;
21979;SDS011;11154;48.558;9.234;2023-12-29T00:25:35;1.17;;;0.88;;
21979;SDS011;11154;48.558;9.234;2023-12-29T00:27:37;2.38;;;1.20;;
21979;SDS011;11154;48.558;9.234;2023-12-29T00:29:39;1.88;;;1.20;;
21979;SDS011;11154;48.558;9.234;2023-12-29T00:31:40;1.23;;;1.00;;
21979;SDS011;11154;48.558;9.234;2023-12-29T00:33:42;2.58;;;0.90;;
21979;SDS011;11154;48.558;9.234;2023-12-29T00:35:43;1.60;;;1.20;;
21979;SDS011;11154;48.558;9.234;2023-12-29T00:37:44;2.13;;;1.25;;
21979;SDS011;11154;48.558;9.234;2023-12-29T00:39:47;1.08;;;0.95;;
21979;SDS011;11154;48.558;9.234;2023-12-29T00:41:49;2.15;;;1.23;;
21979;SDS011;11154;48.558;9.234;2023-12-29T00:43:50;1.80;;;1.27;;
21979;SDS011;11154;48.558;9.234;2023-12-29T00:45:52;1.33;;;1.20;;
21979;SDS011;11154;48.558;9.234;2023-12-29T00:47:53;1.90;;;1.27;;
21979;SDS011;11154;48.558;9.234;2023-12-29T00:49:55;1.55;;;1.10;;
21979;SDS011;11154;48.558;9.234;2023-12-29T00:51:56;2.13;;;1.27;;
21979;SDS011;11154;48.558;9.234;2023-12-29T00:53:57;1.65;;;1.30;;
21979;SDS011;11154;48.558;9.234;2023-12-29T00:56:00;1.77;;;1.38;;
21979;SDS011;11154;48.558;9.234;2023-12-29T00:58:02;1.23;;;1.08;;
21979;SDS011;11154;48.558;9.234;2023-12-29T01:00:04;2.33;;;1.55;;
21979;SDS011;11154;48.558;9.234;2023-12-29T01:02:07;2.47;;;1.40;;
21979;SDS011;11154;48.558;9.234;2023-12-29T01:04:09;1.88;;;1.63;;
21979;SDS011;11154;48.558;9.234;2023-12-29T01:06:10;2.50;;;1.40;;
21979;SDS011;11154;48.558;9.234;2023-12-29T01:08:12;1.73;;;1.48;;
21979;SDS011;11154;48.558;9.234;2023-12-29T01:10:13;2.65;;;1.50;;
21979;SDS011;11154;48.558;9.234;2023-12-29T01:12:16;3.30;;;1.52;;
21979;SDS011;11154;48.558;9.234;2023-12-29T01:14:19;1.75;;;1.63;;
21979;SDS011;11154;48.558;9.234;2023-12-29T01:16:21;2.78;;;1.50;;
21979;SDS011;11154;48.558;9.234;2023-12-29T01:18:21;2.50;;;1.30;;
21979;SDS011;11154;48.558;9.234;2023-12-29T01:20:23;3.25;;;1.50;;
21979;SDS011;11154;48.558;9.234;2023-12-29T01:22:24;1.35;;;1.25;;
21979;SDS011;11154;48.558;9.234;2023-12-29T01:24:26;2.88;;;1.50;;
21979;SDS011;11154;48.558;9.234;2023-12-29T01:26:28;2.17;;;1.40;;
21979;SDS011;11154;48.558;9.234;2023-12-29T01:28:30;2.03;;;1.45;;
21979;SDS011;11154;48.558;9.234;2023-12-29T01:30:31;2.63;;;1.75;;
21979;SDS011;11154;48.558;9.234;2023-12-29T01:32:33;2.25;;;1.70;;
21979;SDS011;11154;48.558;9.234;2023-12-29T01:34:35;2.55;;;1.77;;
21979;SDS011;11154;48.558;9.234;2023-12-29T01:36:36;2.78;;;1.80;;
21979;SDS011;11154;48.558;9.234;2023-12-29T01:38:38;3.05;;;1.70;;
21979;SDS011;11154;48.558;9.234;2023-12-29T01:40:43;3.47;;;1.58;;
21979;SDS011;11154;48.558;9.234;2023-12-29T01:42:45;2.25;;;1.70;;
21979;SDS011;11154;48.558;9.234;2023-12-29T01:44:47;2.47;;;1.55;;
21979;SDS011;11154;48.558;9.234;2023-12-29T01:46:53;3.20;;;1.23;;
21979;SDS011;11154;48.558;9.234;2023-12-29T01:48:56;2.28;;;1.60;;
21979;SDS011;11154;48.558;9.234;2023-12-29T01:50:58;2.05;;;1.45;;
21979;SDS011;11154;48.558;9.234;2023-12-29T01:53:00;1.60;;;1.45;;
21979;SDS011;11154;48.558;9.234;2023-12-29T01:55:03;2.70;;;1.70;;
21979;SDS011;11154;48.558;9.234;2023-12-29T01:57:05;2.72;;;1.60;;
21979;SDS011;11154;48.558;9.234;2023-12-29T01:59:08;3.30;;;1.65;;
21979;SDS011;11154;48.558;9.234;2023-12-29T02:01:11;3.72;;;3.10;;
21979;SDS011;11154;48.558;9.234;2023-12-29T02:03:13;2.60;;;2.00;;
21979;SDS011;11154;48.558;9.234;2023-12-29T02:05:15;1.95;;;1.67;;
21979;SDS011;11154;48.558;9.234;2023-12-29T02:07:18;3.17;;;1.73;;
21979;SDS011;11154;48.558;9.234;2023-12-29T02:09:19;2.78;;;1.85;;
21979;SDS011;11154;48.558;9.234;2023-12-29T02:11:21;2.13;;;1.73;;
21979;SDS011;11154;48.558;9.234;2023-12-29T02:13:23;3.60;;;2.05;;
21979;SDS011;11154;48.558;9.234;2023-12-29T02:15:25;2.25;;;1.88;;
21979;SDS011;11154;48.558;9.234;2023-12-29T02:17:29;2.40;;;1.95;;
21979;SDS011;11154;48.558;9.234;2023-12-29T02:19:38;2.70;;;1.85;;
21979;SDS011;11154;48.558;9.234;2023-12-29T02:21:42;1.90;;;1.70;;
21979;SDS011;11154;48.558;9.234;2023-12-29T02:23:42;3.17;;;2.00;;
21979;SDS011;11154;48.558;9.234;2023-12-29T02:25:45;3.03;;;2.05;;
21979;SDS011;11154;48.558;9.234;2023-12-29T02:27:49;2.88;;;2.22;;
21979;SDS011;11154;48.558;9.234;2023-12-29T02:30:00;3.17;;;2.17;;
21979;SDS011;11154;48.558;9.234;2023-12-29T02:32:09;3.13;;;2.20;;
21979;SDS011;11154;48.558;9.234;2023-12-29T02:34:14;2.30;;;1.98;;
21979;SDS011;11154;48.558;9.234;2023-12-29T02:36:18;3.20;;;2.03;;
21979;SDS011;11154;48.558;9.234;2023-12-29T02:38:21;3.03;;;2.10;;
21979;SDS011;11154;48.558;9.234;2023-12-29T02:40:22;3.25;;;2.20;;
21979;SDS011;11154;48.558;9.234;2023-12-29T02:42:26;2.35;;;1.92;;
21979;SDS011;11154;48.558;9.234;2023-12-29T02:44:27;2.28;;;1.90;;
21979;SDS011;11154;48.558;9.234;2023-12-29T02:46:28;2.78;;;2.00;;
21979;SDS011;11154;48.558;9.234;2023-12-29T02:48:30;3.53;;;2.08;;
21979;SDS011;11154;48.558;9.234;2023-12-29T02:50:32;1.70;;;1.60;;
21979;SDS011;11154;48.558;9.234;2023-12-29T02:52:34;2.38;;;1.80;;
21979;SDS011;11154;48.558;9.234;2023-12-29T02:54:35;3.17;;;2.00;;
21979;SDS011;11154;48.558;9.234;2023-12-29T02:56:37;2.20;;;1.80;;
21979;SDS011;11154;48.558;9.234;2023-12-29T02:58:40;3.65;;;1.77;;
21979;SDS011;11154;48.558;9.234;2023-12-29T03:00:42;2.13;;;1.80;;
21979;SDS011;11154;48.558;9.234;2023-12-29T03:02:43;3.30;;;2.20;;
21979;SDS011;11154;48.558;9.234;2023-12-29T03:04:45;3.17;;;2.10;;
21979;SDS011;11154;48.558;9.234;2023-12-29T03:06:47;3.13;;;2.13;;
21979;SDS011;11154;48.558;9.234;2023-12-29T03:08:48;2.30;;;1.95;;
21979;SDS011;11154;48.558;9.234;2023-12-29T03:10:50;3.58;;;1.90;;
21979;SDS011;11154;48.558;9.234;2023-12-29T03:12:51;2.72;;;1.80;;
21979;SDS011;11154;48.558;9.234;2023-12-29T03:14:54;2.08;;;1.77;;
21979;SDS011;11154;48.558;9.234;2023-12-29T03:16:56;2.92;;;2.10;;
21979;SDS011;11154;48.558;9.234;2023-12-29T03:18:58;3.72;;;2.05;;
21979;SDS011;11154;48.558;9.234;2023-12-29T03:20:59;2.75;;;2.15;;
21979;SDS011;11154;48.558;9.234;2023-12-29T03:23:01;3.00;;;2.00;;
21979;SDS011;11154;48.558;9.234;2023-12-29T03:25:03;3.05;;;2.05;;
21979;SDS011;11154;48.558;9.234;2023-12-29T03:27:05;2.40;;;1.92;;
21979;SDS011;11154;48.558;9.234;2023-12-29T03:29:06;3.28;;;2.15;;
21979;SDS011;11154;48.558;9.234;2023-12-29T03:31:09;2.83;;;2.00;;
21979;SDS011;11154;48.558;9.234;2023-12-29T03:33:10;2.05;;;1.83;;
21979;SDS011;11154;48.558;9.234;2023-12-29T03:35:12;1.85;;;1.65;;
21979;SDS011;11154;48.558;9.234;2023-12-29T03:37:14;2.08;;;1.80;;
21979;SDS011;11154;48.558;9.234;2023-12-29T03:39:16;2.42;;;1.50;;
21979;SDS011;11154;48.558;9.234;2023-12-29T03:41:17;3.17;;;1.80;;
21979;SDS011;11154;48.558;9.234;2023-12-29T03:43:19;2.60;;;1.70;;
21979;SDS011;11154;48.558;9.234;2023-12-29T03:45:21;1.88;;;1.73;;
21979;SDS011;11154;48.558;9.234;2023-12-29T03:47:24;2.50;;;2.10;;
21979;SDS011;11154;48.558;9.234;2023-12-29T03:49:26;2.08;;;1.63;;
21979;SDS011;11154;48.558;9.234;2023-12-29T03:51:27;2.30;;;2.08;;
21979;SDS011;11154;48.558;9.234;2023-12-29T03:53:28;1.90;;;1.58;;
21979;SDS011;11154;48.558;9.234;2023-12-29T03:55:30;4.30;;;3.90;;
21979;SDS011;11154;48.558;9.234;2023-12-29T03:57:32;3.53;;;2.90;;
21979;SDS011;11154;48.558;9.234;2023-12-29T03:59:35;2.42;;;1.80;;
21979;SDS011;11154;48.558;9.234;2023-12-29T04:01:37;2.58;;;1.75;;
21979;SDS011;11154;48.558;9.234;2023-12-29T04:03:40;3.67;;;1.95;;
21979;SDS011;11154;48.558;9.234;2023-12-29T04:05:42;1.83;;;1.40;;
21979;SDS011;11154;48.558;9.234;2023-12-29T04:07:44;1.70;;;1.42;;
21979;SDS011;11154;48.558;9.234;2023-12-29T04:09:45;1.90;;;1.40;;
21979;SDS011;11154;48.558;9.234;2023-12-29T04:11:47;1.73;;;1.30;;
21979;SDS011;11154;48.558;9.234;2023-12-29T04:13:48;2.03;;;1.30;;
21979;SDS011;11154;48.558;9.234;2023-12-29T04:15:50;1.70;;;1.40;;
21979;SDS011;11154;48.558;9.234;2023-12-29T04:17:52;1.33;;;1.15;;
21979;SDS011;11154;48.558;9.234;2023-12-29T04:19:55;1.33;;;1.15;;
21979;SDS011;11154;48.558;9.234;2023-12-29T04:21:57;1.25;;;1.10;;
21979;SDS011;11154;48.558;9.234;2023-12-29T04:23:58;1.50;;;1.27;;
21979;SDS011;11154;48.558;9.234;2023-12-29T04:25:59;2.00;;;1.40;;
21979;SDS011;11154;48.558;9.234;2023-12-29T04:28:00;5.30;;;1.13;;
21979;SDS011;11154;48.558;9.234;2023-12-29T04:30:02;1.40;;;1.20;;
21979;SDS011;11154;48.558;9.234;2023-12-29T04:32:04;3.50;;;1.38;;
21979;SDS011;11154;48.558;9.234;2023-12-29T04:34:06;3.17;;;1.60;;
21979;SDS011;11154;48.558;9.234;2023-12-29T04:36:09;1.50;;;1.40;;
21979;SDS011;11154;48.558;9.234;2023-12-29T04:38:11;1.60;;;1.40;;
21979;SDS011;11154;48.558;9.234;2023-12-29T04:40:13;2.13;;;1.30;;
21979;SDS011;11154;48.558;9.234;2023-12-29T04:42:14;1.73;;;1.40;;
21979;SDS011;11154;48.558;9.234;2023-12-29T04:44:18;2.17;;;1.13;;
21979;SDS011;11154;48.558;9.234;2023-12-29T04:46:18;2.85;;;1.33;;
21979;SDS011;11154;48.558;9.234;2023-12-29T04:48:20;4.97;;;1.10;;
21979;SDS011;11154;48.558;9.234;2023-12-29T04:50:21;4.00;;;1.30;;
21979;SDS011;11154;48.558;9.234;2023-12-29T04:52:23;3.45;;;1.10;;
21979;SDS011;11154;48.558;9.234;2023-12-29T04:54:25;3.70;;;1.52;;
21979;SDS011;11154;48.558;9.234;2023-12-29T04:56:25;1.85;;;1.25;;
21979;SDS011;11154;48.558;9.234;2023-12-29T04:58:27;1.75;;;1.33;;
21979;SDS011;11154;48.558;9.234;2023-12-29T05:00:29;1.83;;;1.30;;
21979;SDS011;11154;48.558;9.234;2023-12-29T05:02:30;1.40;;;1.30;;
21979;SDS011;11154;48.558;9.234;2023-12-29T05:04:31;2.00;;;1.50;;
21979;SDS011;11154;48.558;9.234;2023-12-29T05:06:32;1.27;;;1.13;;
21979;SDS011;11154;48.558;9.234;2023-12-29T05:08:35;1.88;;;1.20;;
21979;SDS011;11154;48.558;9.234;2023-12-29T05:10:36;1.70;;;1.33;;
21979;SDS011;11154;48.558;9.234;2023-12-29T05:12:38;3.53;;;2.40;;
21979;SDS011;11154;48.558;9.234;2023-12-29T05:14:39;2.00;;;1.30;;
21979;SDS011;11154;48.558;9.234;2023-12-29T05:16:41;2.53;;;1.30;;
21979;SDS011;11154;48.558;9.234;2023-12-29T05:18:43;1.25;;;1.15;;
21979;SDS011;11154;48.558;9.234;2023-12-29T05:20:44;2.17;;;1.20;;
21979;SDS011;11154;48.558;9.234;2023-12-29T05:22:46;1.45;;;1.30;;
21979;SDS011;11154;48.558;9.234;2023-12-29T05:24:49;1.90;;;1.30;;
21979;SDS011;11154;48.558;9.234;2023-12-29T05:26:50;2.00;;;1.42;;
21979;SDS011;11154;48.558;9.234;2023-12-29T05:28:51;3.33;;;1.42;;
21979;SDS011;11154;48.558;9.234;2023-12-29T05:30:53;2.17;;;1.40;;
21979;SDS011;11154;48.558;9.234;2023-12-29T05:32:55;1.40;;;1.02;;
21979;SDS011;11154;48.558;9.234;2023-12-29T05:34:56;1.83;;;1.30;;
21979;SDS011;11154;48.558;9.234;2023-12-29T05:36:58;1.77;;;1.30;;
21979;SDS011;11154;48.558;9.234;2023-12-29T05:39:00;2.03;;;1.27;;
21979;SDS011;11154;48.558;9.234;2023-12-29T05:41:03;1.45;;;1.25;;
21979;SDS011;11154;48.558;9.234;2023-12-29T05:43:06;1.85;;;1.30;;
21979;SDS011;11154;48.558;9.234;2023-12-29T05:45:08;1.55;;;1.23;;
21979;SDS011;11154;48.558;9.234;2023-12-29T05:47:09;2.03;;;1.17;;
21979;SDS011;11154;48.558;9.234;2023-12-29T05:49:11;2.38;;;1.25;;
21979;SDS011;11154;48.558;9.234;2023-12-29T05:51:13;1.48;;;1.25;;
21979;SDS011;11154;48.558;9.234;2023-12-29T05:53:16;1.75;;;1.17;;
21979;SDS011;11154;48.558;9.234;2023-12-29T05:55:17;2.25;;;1.05;;
21979;SDS011;11154;48.558;9.234;2023-12-29T05:57:20;2.28;;;1.40;;
21979;SDS011;11154;48.558;9.234;2023-12-29T05:59:22;1.83;;;1.60;;
21979;SDS011;11154;48.558;9.234;2023-12-29T06:01:23;2.65;;;1.98;;
21979;SDS011;11154;48.558;9.234;2023-12-29T06:03:25;1.70;;;1.30;;
21979;SDS011;11154;48.558;9.234;2023-12-29T06:05:27;2.55;;;1.65;;
21979;SDS011;11154;48.558;9.234;2023-12-29T06:07:29;4.10;;;1.77;;
21979;SDS011;11154;48.558;9.234;2023-12-29T06:09:29;1.42;;;1.20;;
21979;SDS011;11154;48.558;9.234;2023-12-29T06:11:31;1.58;;;1.20;;
21979;SDS011;11154;48.558;9.234;2023-12-29T06:13:34;2.17;;;1.17;;
21979;SDS011;11154;48.558;9.234;2023-12-29T06:15:36;1.73;;;1.27;;
21979;SDS011;11154;48.558;9.234;2023-12-29T06:17:38;2.05;;;1.20;;
21979;SDS011;11154;48.558;9.234;2023-12-29T06:19:40;1.50;;;1.20;;
21979;SDS011;11154;48.558;9.234;2023-12-29T06:21:42;2.10;;;1.30;;
21979;SDS011;11154;48.558;9.234;2023-12-29T06:23:44;1.65;;;1.30;;
21979;SDS011;11154;48.558;9.234;2023-12-29T06:25:46;3.17;;;1.40;;
21979;SDS011;11154;48.558;9.234;2023-12-29T06:27:48;1.38;;;1.13;;
21979;SDS011;11154;48.558;9.234;2023-12-29T06:29:51;2.35;;;1.42;;
21979;SDS011;11154;48.558;9.234;2023-12-29T06:31:53;2.05;;;1.10;;
21979;SDS011;11154;48.558;9.234;2023-12-29T06:33:54;3.15;;;1.33;;
21979;SDS011;11154;48.558;9.234;2023-12-29T06:35:56;3.28;;;1.50;;
21979;SDS011;11154;48.558;9.234;2023-12-29T06:37:58;2.38;;;1.33;;
21979;SDS011;11154;48.558;9.234;2023-12-29T06:39:59;1.35;;;1.23;;
21979;SDS011;11154;48.558;9.234;2023-12-29T06:42:00;1.77;;;1.30;;
21979;SDS011;11154;48.558;9.234;2023-12-29T06:44:02;1.35;;;1.10;;
21979;SDS011;11154;48.558;9.234;2023-12-29T06:46:05;1.65;;;1.30;;
21979;SDS011;11154;48.558;9.234;2023-12-29T06:48:08;1.95;;;1.30;;
21979;SDS011;11154;48.558;9.234;2023-12-29T06:50:10;2.13;;;1.15;;
21979;SDS011;11154;48.558;9.234;2023-12-29T06:52:12;0.85;;;0.85;;
21979;SDS011;11154;48.558;9.234;2023-12-29T06:54:14;2.35;;;1.15;;
21979;SDS011;11154;48.558;9.234;2023-12-29T06:56:15;1.67;;;1.20;;
21979;SDS011;11154;48.558;9.234;2023-12-29T06:58:18;1.60;;;1.30;;
21979;SDS011;11154;48.558;9.234;2023-12-29T07:00:19;1.30;;;1.17;;
21979;SDS011;11154;48.558;9.234;2023-12-29T07:02:23;2.80;;;1.80;;
21979;SDS011;11154;48.558;9.234;2023-12-29T07:04:24;1.45;;;1.30;;
21979;SDS011;11154;48.558;9.234;2023-12-29T07:06:26;1.90;;;1.60;;
21979;SDS011;11154;48.558;9.234;2023-12-29T07:08:28;1.67;;;1.50;;
21979;SDS011;11154;48.558;9.234;2023-12-29T07:10:29;1.80;;;1.55;;
21979;SDS011;11154;48.558;9.234;2023-12-29T07:12:31;2.15;;;1.50;;
21979;SDS011;11154;48.558;9.234;2023-12-29T07:14:32;1.80;;;1.20;;
21979;SDS011;11154;48.558;9.234;2023-12-29T07:16:34;1.65;;;1.30;;
21979;SDS011;11154;48.558;9.234;2023-12-29T07:18:37;1.80;;;1.35;;
21979;SDS011;11154;48.558;9.234;2023-12-29T07:20:39;2.30;;;1.63;;
21979;SDS011;11154;48.558;9.234;2023-12-29T07:22:41;2.15;;;1.88;;
21979;SDS011;11154;48.558;9.234;2023-12-29T07:24:43;2.45;;;1.52;;
21979;SDS011;11154;48.558;9.234;2023-12-29T07:26:45;6.22;;;2.80;;
21979;SDS011;11154;48.558;9.234;2023-12-29T07:28:45;2.95;;;1.95;;
21979;SDS011;11154;48.558;9.234;2023-12-29T07:30:47;3.55;;;2.55;;
21979;SDS011;11154;48.558;9.234;2023-12-29T07:32:49;1.70;;;1.60;;
21979;SDS011;11154;48.558;9.234;2023-12-29T07:34:52;3.53;;;2.53;;
21979;SDS011;11154;48.558;9.234;2023-12-29T07:36:54;6.15;;;4.07;;
21979;SDS011;11154;48.558;9.234;2023-12-29T07:38:56;5.93;;;4.75;;
21979;SDS011;11154;48.558;9.234;2023-12-29T07:40:56;5.72;;;4.30;;
21979;SDS011;11154;48.558;9.234;2023-12-29T07:42:59;3.35;;;2.40;;
21979;SDS011;11154;48.558;9.234;2023-12-29T07:45:00;2.10;;;1.90;;
21979;SDS011;11154;48.558;9.234;2023-12-29T07:47:02;10.88;;;8.85;;
21979;SDS011;11154;48.558;9.234;2023-12-29T07:49:04;6.88;;;4.75;;
21979;SDS011;11154;48.558;9.234;2023-12-29T07:51:08;5.72;;;4.80;;
21979;SDS011;11154;48.558;9.234;2023-12-29T07:53:09;4.05;;;3.58;;
21979;SDS011;11154;48.558;9.234;2023-12-29T07:55:10;4.22;;;3.83;;
21979;SDS011;11154;48.558;9.234;2023-12-29T07:57:12;5.07;;;3.80;;
21979;SDS011;11154;48.558;9.234;2023-12-29T07:59:13;2.90;;;2.50;;
21979;SDS011;11154;48.558;9.234;2023-12-29T08:01:15;2.78;;;2.50;;
21979;SDS011;11154;48.558;9.234;2023-12-29T08:03:17;2.67;;;2.00;;
21979;SDS011;11154;48.558;9.234;2023-12-29T08:05:18;2.28;;;1.90;;
21979;SDS011;11154;48.558;9.234;2023-12-29T08:07:22;7.55;;;6.57;;
21979;SDS011;11154;48.558;9.234;2023-12-29T08:09:23;5.00;;;4.50;;
21979;SDS011;11154;48.558;9.234;2023-12-29T08:11:26;5.65;;;3.25;;
21979;SDS011;11154;48.558;9.234;2023-12-29T08:13:28;2.60;;;2.22;;
21979;SDS011;11154;48.558;9.234;2023-12-29T08:15:29;3.30;;;1.90;;
21979;SDS011;11154;48.558;9.234;2023-12-29T08:17:31;2.75;;;1.65;;
21979;SDS011;11154;48.558;9.234;2023-12-29T08:19:32;2.42;;;1.58;;
21979;SDS011;11154;48.558;9.234;2023-12-29T08:21:34;3.75;;;1.70;;
21979;SDS011;11154;48.558;9.234;2023-12-29T08:23:37;2.75;;;1.60;;
21979;SDS011;11154;48.558;9.234;2023-12-29T08:25:39;1.67;;;1.58;;
21979;SDS011;11154;48.558;9.234;2023-12-29T08:27:40;2.45;;;1.55;;
21979;SDS011;11154;48.558;9.234;2023-12-29T08:29:42;1.45;;;1.25;;
21979;SDS011;11154;48.558;9.234;2023-12-29T08:31:44;2.92;;;2.10;;
21979;SDS011;11154;48.558;9.234;2023-12-29T08:33:44;4.55;;;1.80;;
21979;SDS011;11154;48.558;9.234;2023-12-29T08:35:46;3.60;;;1.95;;
21979;SDS011;11154;48.558;9.234;2023-12-29T08:37:48;3.03;;;2.10;;
21979;SDS011;11154;48.558;9.234;2023-12-29T08:39:51;2.70;;;2.10;;
21979;SDS011;11154;48.558;9.234;2023-12-29T08:41:52;2.03;;;1.48;;
21979;SDS011;11154;48.558;9.234;2023-12-29T08:43:54;3.13;;;2.40;;
21979;SDS011;11154;48.558;9.234;2023-12-29T08:45:56;3.45;;;2.00;;
21979;SDS011;11154;48.558;9.234;2023-12-29T08:47:58;2.72;;;1.70;;
21979;SDS011;11154;48.558;9.234;2023-12-29T08:49:59;1.48;;;1.25;;
21979;SDS011;11154;48.558;9.234;2023-12-29T08:52:02;1.88;;;1.30;;
21979;SDS011;11154;48.558;9.234;2023-12-29T08:54:03;1.80;;;1.45;;
21979;SDS011;11154;48.558;9.234;2023-12-29T08:56:08;2.30;;;1.67;;
21979;SDS011;11154;48.558;9.234;2023-12-29T08:58:10;1.85;;;1.10;;
21979;SDS011;11154;48.558;9.234;2023-12-29T09:00:12;1.55;;;0.95;;
21979;SDS011;11154;48.558;9.234;2023-12-29T09:02:14;1.42;;;1.20;;
21979;SDS011;11154;48.558;9.234;2023-12-29T09:04:14;2.70;;;0.80;;
21979;SDS011;11154;48.558;9.234;2023-12-29T09:06:16;1.73;;;0.93;;
21979;SDS011;11154;48.558;9.234;2023-12-29T09:08:18;1.35;;;1.02;;
21979;SDS011;11154;48.558;9.234;2023-12-29T09:10:20;1.55;;;0.90;;
21979;SDS011;11154;48.558;9.234;2023-12-29T09:12:24;1.70;;;1.02;;
21979;SDS011;11154;48.558;9.234;2023-12-29T09:14:25;0.98;;;0.98;;
21979;SDS011;11154;48.558;9.234;2023-12-29T09:16:26;1.25;;;0.90;;
21979;SDS011;11154;48.558;9.234;2023-12-29T09:18:27;1.98;;;1.20;;
21979;SDS011;11154;48.558;9.234;2023-12-29T09:20:29;2.00;;;1.17;;
21979;SDS011;11154;48.558;9.234;2023-12-29T09:22:31;1.65;;;1.13;;
21979;SDS011;11154;48.558;9.234;2023-12-29T09:24:31;1.23;;;1.10;;
21979;SDS011;11154;48.558;9.234;2023-12-29T09:26:33;1.15;;;1.00;;
21979;SDS011;11154;48.558;9.234;2023-12-29T09:28:36;0.93;;;0.82;;
21979;SDS011;11154;48.558;9.234;2023-12-29T09:30:37;2.60;;;0.90;;
21979;SDS011;11154;48.558;9.234;2023-12-29T09:32:39;1.50;;;1.00;;
21979;SDS011;11154;48.558;9.234;2023-12-29T09:34:41;1.70;;;0.90;;
21979;SDS011;11154;48.558;9.234;2023-12-29T09:36:42;1.50;;;0.80;;
21979;SDS011;11154;48.558;9.234;2023-12-29T09:38:44;0.95;;;0.70;;
21979;SDS011;11154;48.558;9.234;2023-12-29T09:40:46;1.48;;;1.00;;
21979;SDS011;11154;48.558;9.234;2023-12-29T09:42:49;1.02;;;0.63;;
21979;SDS011;11154;48.558;9.234;2023-12-29T09:44:52;1.15;;;0.93;;
21979;SDS011;11154;48.558;9.234;2023-12-29T09:46:54;1.15;;;0.80;;
21979;SDS011;11154;48.558;9.234;2023-12-29T09:48:56;0.95;;;0.85;;
21979;SDS011;11154;48.558;9.234;2023-12-29T09:51:03;1.33;;;1.10;;
21979;SDS011;11154;48.558;9.234;2023-12-29T09:53:07;1.38;;;0.85;;
21979;SDS011;11154;48.558;9.234;2023-12-29T09:55:12;1.83;;;0.90;;
21979;SDS011;11154;48.558;9.234;2023-12-29T09:57:14;2.00;;;1.35;;
21979;SDS011;11154;48.558;9.234;2023-12-29T09:59:16;1.65;;;0.80;;
21979;SDS011;11154;48.558;9.234;2023-12-29T10:01:19;0.68;;;0.63;;
21979;SDS011;11154;48.558;9.234;2023-12-29T10:03:21;2.42;;;1.05;;
21979;SDS011;11154;48.558;9.234;2023-12-29T10:05:23;2.53;;;1.48;;
21979;SDS011;11154;48.558;9.234;2023-12-29T10:07:25;0.70;;;0.60;;
21979;SDS011;11154;48.558;9.234;2023-12-29T10:09:27;1.08;;;0.95;;
21979;SDS011;11154;48.558;9.234;2023-12-29T10:11:30;0.90;;;0.70;;
21979;SDS011;11154;48.558;9.234;2023-12-29T10:13:35;0.93;;;0.63;;
21979;SDS011;11154;48.558;9.234;2023-12-29T10:15:42;2.60;;;1.10;;
21979;SDS011;11154;48.558;9.234;2023-12-29T10:17:55;3.08;;;1.00;;
21979;SDS011;11154;48.558;9.234;2023-12-29T10:20:05;1.55;;;0.80;;
21979;SDS011;11154;48.558;9.234;2023-12-29T10:22:15;1.88;;;1.08;;
21979;SDS011;11154;48.558;9.234;2023-12-29T10:24:22;1.05;;;0.80;;
21979;SDS011;11154;48.558;9.234;2023-12-29T10:26:24;2.67;;;1.52;;
21979;SDS011;11154;48.558;9.234;2023-12-29T10:28:27;1.20;;;0.90;;
21979;SDS011;11154;48.558;9.234;2023-12-29T10:30:29;1.42;;;0.80;;
21979;SDS011;11154;48.558;9.234;2023-12-29T10:32:31;1.58;;;1.00;;
21979;SDS011;11154;48.558;9.234;2023-12-29T10:34:34;0.80;;;0.80;;
21979;SDS011;11154;48.558;9.234;2023-12-29T10:36:42;3.08;;;0.80;;
21979;SDS011;11154;48.558;9.234;2023-12-29T10:38:47;1.35;;;1.13;;
21979;SDS011;11154;48.558;9.234;2023-12-29T10:40:50;4.53;;;3.13;;
21979;SDS011;11154;48.558;9.234;2023-12-29T10:42:53;9.55;;;6.03;;
21979;SDS011;11154;48.558;9.234;2023-12-29T10:45:06;12.65;;;7.97;;
21979;SDS011;11154;48.558;9.234;2023-12-29T10:47:10;2.75;;;1.13;;
21979;SDS011;11154;48.558;9.234;2023-12-29T10:49:12;2.28;;;0.90;;
21979;SDS011;11154;48.558;9.234;2023-12-29T10:51:16;2.35;;;0.90;;
21979;SDS011;11154;48.558;9.234;2023-12-29T10:53:28;1.02;;;0.90;;
21979;SDS011;11154;48.558;9.234;2023-12-29T10:55:31;1.33;;;0.93;;
21979;SDS011;11154;48.558;9.234;2023-12-29T10:57:33;0.70;;;0.70;;
21979;SDS011;11154;48.558;9.234;2023-12-29T10:59:35;1.00;;;0.90;;
21979;SDS011;11154;48.558;9.234;2023-12-29T11:01:36;1.35;;;0.88;;
21979;SDS011;11154;48.558;9.234;2023-12-29T11:03:38;1.77;;;0.63;;
21979;SDS011;11154;48.558;9.234;2023-12-29T11:05:38;0.73;;;0.70;;
21979;SDS011;11154;48.558;9.234;2023-12-29T11:07:42;1.10;;;0.80;;
21979;SDS011;11154;48.558;9.234;2023-12-29T11:09:43;1.58;;;0.93;;
21979;SDS011;11154;48.558;9.234;2023-12-29T11:11:44;1.08;;;0.98;;
21979;SDS011;11154;48.558;9.234;2023-12-29T11:13:46;1.80;;;0.80;;
21979;SDS011;11154;48.558;9.234;2023-12-29T11:15:51;1.23;;;0.75;;
21979;SDS011;11154;48.558;9.234;2023-12-29T11:17:56;0.80;;;0.70;;
21979;SDS011;11154;48.558;9.234;2023-12-29T11:19:59;1.00;;;0.90;;
21979;SDS011;11154;48.558;9.234;2023-12-29T11:22:02;1.67;;;1.10;;
21979;SDS011;11154;48.558;9.234;2023-12-29T11:24:05;0.80;;;0.80;;
21979;SDS011;11154;48.558;9.234;2023-12-29T11:26:07;1.25;;;0.80;;
21979;SDS011;11154;48.558;9.234;2023-12-29T11:28:10;2.17;;;0.85;;
21979;SDS011;11154;48.558;9.234;2023-12-29T11:30:13;1.13;;;0.68;;
21979;SDS011;11154;48.558;9.234;2023-12-29T11:32:16;2.15;;;0.90;;
21979;SDS011;11154;48.558;9.234;2023-12-29T11:34:25;1.00;;;0.90;;
21979;SDS011;11154;48.558;9.234;2023-12-29T11:36:32;1.10;;;0.82;;
21979;SDS011;11154;48.558;9.234;2023-12-29T11:38:41;1.17;;;0.90;;
21979;SDS011;11154;48.558;9.234;2023-12-29T11:40:50;1.58;;;0.73;;
21979;SDS011;11154;48.558;9.234;2023-12-29T11:43:00;1.52;;;0.88;;
21979;SDS011;11154;48.558;9.234;2023-12-29T11:47:36;1.13;;;0.68;;
21979;SDS011;11154;48.558;9.234;2023-12-29T11:52:01;0.80;;;0.65;;
21979;SDS011;11154;48.558;9.234;2023-12-29T11:54:03;3.75;;;0.65;;
21979;SDS011;11154;48.558;9.234;2023-12-29T11:56:07;1.05;;;0.90;;
21979;SDS011;11154;48.558;9.234;2023-12-29T11:58:25;0.77;;;0.75;;
21979;SDS011;11154;48.558;9.234;2023-12-29T12:00:40;0.95;;;0.70;;
21979;SDS011;11154;48.558;9.234;2023-12-29T12:02:42;0.80;;;0.63;;
21979;SDS011;11154;48.558;9.234;2023-12-29T12:04:44;2.15;;;0.85;;
21979;SDS011;11154;48.558;9.234;2023-12-29T12:06:46;0.80;;;0.80;;
21979;SDS011;11154;48.558;9.234;2023-12-29T12:08:46;1.05;;;0.80;;
21979;SDS011;11154;48.558;9.234;2023-12-29T12:10:48;0.95;;;0.80;;
21979;SDS011;11154;48.558;9.234;2023-12-29T12:12:50;2.25;;;0.95;;
21979;SDS011;11154;48.558;9.234;2023-12-29T12:14:53;1.08;;;0.90;;
21979;SDS011;11154;48.558;9.234;2023-12-29T12:16:55;0.98;;;0.80;;
21979;SDS011;11154;48.558;9.234;2023-12-29T12:18:56;3.53;;;0.90;;
21979;SDS011;11154;48.558;9.234;2023-12-29T12:20:59;1.05;;;0.80;;
21979;SDS011;11154;48.558;9.234;2023-12-29T12:23:02;0.90;;;0.85;;